首页
METAR-TAF:

METAR-TAF

机场 :

Guymon, 奧克拉荷馬州, 美国

纬度: 36-40-54N, 经度: 101-30-19W, 海拔: 952米

当前天气观测

该预报发布于33分钟前的17:53 UTC
风速10节,风向,有时为18节阵风
温度 27°C
湿度 54%
气压 1025 hPa
能見度: 16.1公里
天空无云

METAR: KGUY 201753Z AUTO 18010G18KT 10SM CLR 27/17 A3027 RMK AO2 SLP206 T02670172 10267 20183 58007

时间: 13:26 (18:26 UTC)

预报

该预报发布于1小时和6分钟前的17:20 UTC
预报有效从20日的 18点(UTC)到 21日的 18点(UTC)
风速15节,风向
能見度: 10公里
散云层高于6000英尺
多云层高于8000英尺
从 20日的 2200点(UTC)
风速16节,风向南转南东,有时为25节阵风
能見度: 10公里
散云层高于10000英尺
从 21日的 0300点(UTC)
风速11节,风向
能見度: 10公里
散云层高于10000英尺
从 21日的 1200点(UTC)
风速11节,风向
能見度: 10公里
散云层高于4000英尺

TAF: KGUY 201720Z 2018/2118 18015KT P6SM SCT060 BKN080 FM202200 16016G25KT P6SM SCT100 FM210300 17011KT P6SM SCT100 FM211200 19011KT P6SM SCT040

超过4000个机场的气象观测和天气预报(METAR&TAF报告)。

可查询的气象台以黄色和红色小点在地图上表示。

将鼠标移到小点上方,可查看气象台名称。

然后点击查看天气观测和预报。

如需切换地图:点击带黑十字的绿色按钮放大地图;点击带横线的绿色按钮缩小地图;或者点击绿色箭头查看邻近地区的地图。


METAR-TAF: